Time;durP1;ratioP1;P1;durP2;ratioP2;P2;SDS_P1;SDS_P2;PMS_P1;PMS_P2;Temp;Humidity;BMP_temperature;BMP_pressure;BME280_temperature;BME280_humidity;BME280_pressure;Samples;Min_cycle;Max_cycle;Signal;HPM_P1;HPM_P2
2023/11/02 00:01:35;;;;;;;0.50;0.50;;;6.40;99.90;;;;;;5015687;28;20192;-57
2023/11/02 00:04:02;;;;;;;0.40;0.40;;;6.30;99.90;;;;;;5015228;28;20649;-56
2023/11/02 00:06:37;;;;;;;0.30;0.30;;;6.30;99.90;;;;;;5027283;28;20211;-56
2023/11/02 00:09:31;;;;;;;0.30;0.30;;;6.30;99.90;;;;;;5013227;28;20175;-57
2023/11/02 00:12:01;;;;;;;0.68;0.60;;;6.30;99.90;;;;;;5015443;28;20271;-56
2023/11/02 00:14:28;;;;;;;0.30;0.30;;;6.30;99.90;;;;;;5015152;28;20231;-57
2023/11/02 00:16:56;;;;;;;0.50;0.50;;;6.30;99.90;;;;;;5014784;28;20204;-55
2023/11/02 00:19:37;;;;;;;0.40;0.40;;;6.30;99.90;;;;;;5015113;28;20646;-57
2023/11/02 00:22:08;;;;;;;0.63;0.63;;;6.40;99.90;;;;;;5015060;28;20216;-57
2023/11/02 00:24:40;;;;;;;0.50;0.50;;;6.50;99.90;;;;;;5014897;28;20272;-56
2023/11/02 00:27:06;;;;;;;0.50;0.50;;;6.50;99.90;;;;;;5014796;28;20621;-57
2023/11/02 00:29:32;;;;;;;0.30;0.30;;;6.50;99.90;;;;;;5014634;28;20176;-54
2023/11/02 00:31:58;;;;;;;0.40;0.40;;;6.40;99.90;;;;;;5014858;28;20692;-57
2023/11/02 00:34:26;;;;;;;0.30;0.30;;;6.30;99.90;;;;;;5014748;28;20448;-56
2023/11/02 00:36:52;;;;;;;0.50;0.50;;;6.40;99.90;;;;;;5014678;28;20200;-55
2023/11/02 00:39:20;;;;;;;0.35;0.35;;;6.40;99.90;;;;;;5013878;28;20708;-57
2023/11/02 00:41:47;;;;;;;0.50;0.50;;;6.50;99.90;;;;;;5013875;28;20220;-56
2023/11/02 00:44:13;;;;;;;0.30;0.30;;;6.40;99.90;;;;;;5013850;28;20544;-57
2023/11/02 00:46:39;;;;;;;2.90;2.80;;;6.40;99.90;;;;;;5054372;23;20306;-63
2023/11/02 00:49:11;;;;;;;0.93;0.93;;;6.30;99.90;;;;;;4998496;28;20252;-63
2023/11/02 00:51:37;;;;;;;0.95;0.95;;;6.30;99.90;;;;;;4997809;28;20556;-63
2023/11/02 00:54:06;;;;;;;0.90;0.90;;;6.20;99.90;;;;;;4999040;28;20235;-63
2023/11/02 00:56:36;;;;;;;0.55;0.55;;;6.20;99.90;;;;;;4998787;28;20667;-63
2023/11/02 00:59:04;;;;;;;0.50;0.50;;;6.20;99.90;;;;;;4998889;28;20181;-63
2023/11/02 01:01:30;;;;;;;0.60;0.60;;;6.40;99.90;;;;;;4998639;28;20523;-63
2023/11/02 01:04:48;;;;;;;1.70;1.08;;;6.50;99.90;;;;;;4998462;28;20224;-63
2023/11/02 01:07:15;;;;;;;0.40;0.40;;;6.60;99.90;;;;;;4986839;28;20225;-63
2023/11/02 01:09:47;;;;;;;0.65;0.65;;;6.60;99.90;;;;;;4998241;28;20592;-63
2023/11/02 01:12:27;;;;;;;0.85;0.85;;;6.70;99.90;;;;;;4998564;28;20186;-63
2023/11/02 01:14:53;;;;;;;0.30;0.30;;;6.70;99.90;;;;;;4998204;28;20180;-63
2023/11/02 01:17:42;;;;;;;2.97;0.80;;;6.60;99.90;;;;;;4998211;28;20210;-63
2023/11/02 01:20:14;;;;;;;0.38;0.38;;;6.60;99.90;;;;;;4998469;28;20274;-63
2023/11/02 01:23:06;;;;;;;4.82;0.80;;;6.70;99.90;;;;;;4998052;28;20216;-63
2023/11/02 01:25:41;;;;;;;2.45;0.50;;;6.70;99.90;;;;;;4997867;28;20346;-63
2023/11/02 01:28:07;;;;;;;0.40;0.40;;;6.80;99.90;;;;;;4997993;28;20185;-63
2023/11/02 01:30:33;;;;;;;0.50;0.50;;;6.90;99.90;;;;;;4998408;28;20209;-63
2023/11/02 01:33:00;;;;;;;0.40;0.40;;;7.00;99.90;;;;;;4998426;28;20215;-63
2023/11/02 01:35:42;;;;;;;0.80;0.80;;;7.10;99.90;;;;;;4997541;28;20220;-63
2023/11/02 01:38:07;;;;;;;0.60;0.60;;;7.20;99.90;;;;;;4997814;28;20237;-63
2023/11/02 01:40:55;;;;;;;0.50;0.50;;;7.20;99.90;;;;;;4996995;28;20269;-63
2023/11/02 01:43:52;;;;;;;1.05;0.98;;;7.10;99.90;;;;;;4997338;28;20560;-63
2023/11/02 01:46:25;;;;;;;0.93;0.93;;;7.10;99.90;;;;;;4997299;28;20378;-63
2023/11/02 01:49:08;;;;;;;0.30;0.30;;;7.10;99.90;;;;;;4996372;28;20179;-63
2023/11/02 01:51:52;;;;;;;0.40;0.40;;;7.20;99.90;;;;;;4997705;28;20540;-63
2023/11/02 01:54:52;;;;;;;2.05;0.40;;;7.20;99.90;;;;;;4997023;28;20251;-63
2023/11/02 01:57:36;;;;;;;0.82;0.82;;;7.30;99.90;;;;;;4930451;28;20217;-63
2023/11/02 02:00:06;;;;;;;0.40;0.40;;;7.20;99.90;;;;;;4996735;28;20188;-63
2023/11/02 02:03:02;;;;;;;0.73;0.73;;;7.30;99.90;;;;;;4996874;28;20234;-63
2023/11/02 02:05:39;;;;;;;0.75;0.60;;;7.30;99.90;;;;;;5002129;28;20217;-67
2023/11/02 02:08:17;;;;;;;0.40;0.40;;;7.40;99.90;;;;;;4997556;28;20642;-63
2023/11/02 02:11:20;;;;;;;0.55;0.55;;;7.50;99.90;;;;;;4997544;28;20692;-63
2023/11/02 02:14:14;;;;;;;1.15;0.50;;;7.60;99.90;;;;;;4996920;28;20172;-63
2023/11/02 02:16:48;;;;;;;0.70;0.70;;;7.70;99.90;;;;;;4996643;28;20210;-63
2023/11/02 02:19:30;;;;;;;0.80;0.75;;;7.90;99.90;;;;;;4996941;28;20165;-63
2023/11/02 02:22:12;;;;;;;0.30;0.30;;;7.90;99.90;;;;;;4997176;28;20172;-63
2023/11/02 02:24:42;;;;;;;0.52;0.52;;;8.00;99.90;;;;;;4996900;28;20223;-63
2023/11/02 02:27:32;;;;;;;0.30;0.30;;;8.00;99.90;;;;;;4996405;28;20803;-63
2023/11/02 02:30:29;;;;;;;0.30;0.30;;;8.10;99.90;;;;;;4996872;28;20207;-63
2023/11/02 02:33:18;;;;;;;0.57;0.57;;;8.10;99.90;;;;;;4996638;28;20637;-63
2023/11/02 02:36:01;;;;;;;0.40;0.40;;;8.30;99.90;;;;;;4996232;28;20196;-63
2023/11/02 02:38:39;;;;;;;0.40;0.40;;;8.30;99.90;;;;;;4995932;28;20295;-63
2023/11/02 02:41:08;;;;;;;1.40;0.55;;;8.30;99.90;;;;;;4995493;28;20258;-63
2023/11/02 02:43:36;;;;;;;0.82;0.82;;;8.20;99.90;;;;;;4996458;28;20526;-63
2023/11/02 02:46:07;;;;;;;0.50;0.50;;;8.20;99.90;;;;;;4995940;28;20208;-63
2023/11/02 02:48:34;;;;;;;0.40;0.40;;;8.30;99.90;;;;;;4996030;28;20194;-63
2023/11/02 02:51:08;;;;;;;0.40;0.40;;;8.50;99.90;;;;;;4995844;28;20176;-63
2023/11/02 02:53:37;;;;;;;0.50;0.47;;;8.60;99.90;;;;;;4996684;28;20546;-63
2023/11/02 02:56:07;;;;;;;0.50;0.50;;;8.60;99.90;;;;;;4995871;28;20213;-63
2023/11/02 02:59:03;;;;;;;0.30;0.30;;;8.60;99.90;;;;;;4995335;28;20250;-63
2023/11/02 03:01:34;;;;;;;0.30;0.30;;;8.60;99.90;;;;;;4994993;28;20173;-63
2023/11/02 03:04:02;;;;;;;0.40;0.40;;;8.50;99.90;;;;;;4995670;28;20180;-63
2023/11/02 03:06:30;;;;;;;0.40;0.40;;;8.50;99.90;;;;;;4995676;28;20196;-63
2023/11/02 03:09:01;;;;;;;0.50;0.50;;;8.60;99.90;;;;;;4995445;28;20241;-63
2023/11/02 03:11:29;;;;;;;0.30;0.30;;;8.70;99.90;;;;;;4995667;28;20178;-63
2023/11/02 03:13:56;;;;;;;0.50;0.50;;;8.80;99.90;;;;;;4995558;28;20180;-63
2023/11/02 03:16:23;;;;;;;0.65;0.65;;;8.80;99.90;;;;;;4995939;28;20299;-63
2023/11/02 03:18:49;;;;;;;0.60;0.50;;;8.80;99.90;;;;;;4995024;28;20172;-63
2023/11/02 03:21:15;;;;;;;0.50;0.50;;;9.00;99.90;;;;;;4993979;28;20176;-63
2023/11/02 03:23:59;;;;;;;0.50;0.50;;;9.00;99.90;;;;;;4994857;28;20654;-63
2023/11/02 03:27:00;;;;;;;1.33;1.23;;;8.80;99.90;;;;;;4996368;28;20275;-63
2023/11/02 03:29:52;;;;;;;0.30;0.30;;;8.60;99.90;;;;;;4994819;28;20184;-63
2023/11/02 03:32:33;;;;;;;0.40;0.40;;;8.70;99.90;;;;;;4998746;28;20184;-63
2023/11/02 03:35:21;;;;;;;0.57;0.57;;;8.80;99.90;;;;;;4999764;28;20176;-63
2023/11/02 03:38:26;;;;;;;0.30;0.30;;;8.80;99.90;;;;;;4999300;28;20569;-63
2023/11/02 03:41:00;;;;;;;0.40;0.40;;;8.80;99.90;;;;;;4999834;28;20226;-63
2023/11/02 03:43:35;;;;;;;0.52;0.50;;;8.90;99.90;;;;;;4999697;28;20160;-63
2023/11/02 03:46:35;;;;;;;0.30;0.30;;;8.90;99.90;;;;;;4999305;28;20294;-63
2023/11/02 03:49:06;;;;;;;0.40;0.40;;;8.90;99.90;;;;;;4999341;28;20180;-63
2023/11/02 03:51:47;;;;;;;0.50;0.50;;;9.00;99.90;;;;;;4999383;28;20168;-63
2023/11/02 03:54:40;;;;;;;0.50;0.50;;;9.00;99.90;;;;;;4998484;28;20176;-63
2023/11/02 03:57:06;;;;;;;0.52;0.52;;;9.00;99.90;;;;;;4999282;28;20212;-63
2023/11/02 03:59:38;;;;;;;0.70;0.70;;;9.10;99.90;;;;;;4997988;28;20202;-63
2023/11/02 04:02:17;;;;;;;0.40;0.40;;;9.10;99.90;;;;;;4999278;28;20247;-63
2023/11/02 04:05:03;;;;;;;0.40;0.40;;;9.10;99.90;;;;;;4999597;28;20164;-63
2023/11/02 04:07:51;;;;;;;0.70;0.70;;;9.00;99.90;;;;;;4999473;28;20251;-63
2023/11/02 04:10:24;;;;;;;0.30;0.30;;;9.00;99.90;;;;;;4998775;28;20658;-63
2023/11/02 04:13:13;;;;;;;0.65;0.65;;;9.10;99.90;;;;;;4999279;28;20247;-63
2023/11/02 04:15:40;;;;;;;0.50;0.50;;;9.00;99.90;;;;;;4998976;28;20196;-63
2023/11/02 04:18:06;;;;;;;0.95;0.95;;;8.70;99.90;;;;;;4998558;28;20201;-63
2023/11/02 04:20:32;;;;;;;0.50;0.50;;;8.80;99.90;;;;;;4998699;28;20175;-63
2023/11/02 04:22:57;;;;;;;0.40;0.40;;;8.80;99.90;;;;;;4998759;28;20168;-63
2023/11/02 04:25:24;;;;;;;0.40;0.40;;;8.90;99.90;;;;;;4998841;28;20223;-63
2023/11/02 04:27:50;;;;;;;0.30;0.30;;;8.90;99.90;;;;;;4998138;28;20415;-63
2023/11/02 04:30:16;;;;;;;1.50;0.50;;;8.90;99.90;;;;;;4998817;28;20182;-63
2023/11/02 04:32:42;;;;;;;0.40;0.40;;;8.80;99.90;;;;;;4998404;28;20844;-63
2023/11/02 04:35:10;;;;;;;0.30;0.30;;;8.80;99.90;;;;;;4998268;28;20208;-63
2023/11/02 04:37:35;;;;;;;0.95;0.50;;;8.90;99.90;;;;;;4998512;28;20224;-63
2023/11/02 04:40:01;;;;;;;0.50;0.50;;;8.90;99.90;;;;;;4998358;28;20176;-63
2023/11/02 04:42:27;;;;;;;0.37;0.37;;;8.90;99.90;;;;;;4996834;28;20172;-63
2023/11/02 04:44:52;;;;;;;0.40;0.40;;;9.00;99.90;;;;;;4998078;28;20182;-63
2023/11/02 04:47:18;;;;;;;0.57;0.57;;;8.90;99.90;;;;;;4998223;28;20610;-63
2023/11/02 04:49:44;;;;;;;0.40;0.40;;;9.00;99.90;;;;;;4998286;28;20693;-63
2023/11/02 04:52:09;;;;;;;0.40;0.40;;;9.20;99.90;;;;;;4998502;28;20235;-63
2023/11/02 04:54:35;;;;;;;0.40;0.40;;;9.20;99.90;;;;;;4998011;28;20180;-63
2023/11/02 04:57:01;;;;;;;0.40;0.40;;;9.30;99.90;;;;;;4997787;28;20207;-63
2023/11/02 04:59:31;;;;;;;1.40;0.88;;;9.30;99.90;;;;;;4998097;28;20222;-63
2023/11/02 05:01:57;;;;;;;0.40;0.40;;;9.30;99.90;;;;;;4996946;28;20208;-63
2023/11/02 05:04:23;;;;;;;0.40;0.40;;;9.40;99.90;;;;;;4997769;28;20175;-63
2023/11/02 05:06:49;;;;;;;0.40;0.40;;;9.20;99.90;;;;;;4997643;28;20427;-63
2023/11/02 05:09:16;;;;;;;0.55;0.55;;;9.10;99.90;;;;;;4997410;28;20433;-63
2023/11/02 05:11:42;;;;;;;0.50;0.50;;;9.10;99.90;;;;;;4998142;28;20204;-63
2023/11/02 05:14:08;;;;;;;0.40;0.40;;;9.10;99.90;;;;;;4997541;28;20168;-63
2023/11/02 05:16:33;;;;;;;0.70;0.70;;;9.20;99.90;;;;;;4997496;28;20438;-63
2023/11/02 05:18:59;;;;;;;0.40;0.40;;;9.10;99.90;;;;;;4997393;28;20238;-63
2023/11/02 05:21:25;;;;;;;0.50;0.43;;;9.10;99.90;;;;;;4997786;28;20200;-63
2023/11/02 05:23:50;;;;;;;1.13;0.73;;;9.20;99.90;;;;;;4997858;28;20168;-63
2023/11/02 05:26:16;;;;;;;0.53;0.47;;;9.30;99.90;;;;;;4998306;28;20203;-63
2023/11/02 05:28:42;;;;;;;0.40;0.40;;;9.30;99.90;;;;;;4997574;28;20206;-63
2023/11/02 05:31:07;;;;;;;0.40;0.40;;;9.40;99.90;;;;;;4997601;28;20176;-63
2023/11/02 05:33:33;;;;;;;0.60;0.60;;;9.40;99.90;;;;;;4996705;28;20183;-63
2023/11/02 05:36:00;;;;;;;0.40;0.40;;;9.30;99.90;;;;;;4997182;28;20196;-62
2023/11/02 05:38:26;;;;;;;0.40;0.35;;;9.40;99.90;;;;;;4993396;28;20200;-62
2023/11/02 05:40:51;;;;;;;0.30;0.30;;;9.30;99.90;;;;;;4987612;28;20728;-62
2023/11/02 05:43:17;;;;;;;0.60;0.60;;;9.10;99.90;;;;;;4987698;28;20176;-62
2023/11/02 05:45:43;;;;;;;0.93;0.90;;;9.20;99.90;;;;;;4991559;28;20215;-62
2023/11/02 05:48:08;;;;;;;0.40;0.40;;;9.10;99.90;;;;;;4997005;28;20180;-62
2023/11/02 05:50:35;;;;;;;0.30;0.30;;;9.10;99.90;;;;;;4997334;28;20590;-62
2023/11/02 05:53:01;;;;;;;0.60;0.43;;;9.20;99.90;;;;;;4997285;28;20940;-63
2023/11/02 05:55:27;;;;;;;0.60;0.60;;;9.10;99.90;;;;;;4997158;28;20235;-62
2023/11/02 05:57:52;;;;;;;0.40;0.40;;;9.20;99.90;;;;;;4996740;28;20232;-63
2023/11/02 06:00:18;;;;;;;0.60;0.60;;;9.20;99.90;;;;;;4997539;28;20647;-63
2023/11/02 06:02:44;;;;;;;0.63;0.63;;;9.20;99.90;;;;;;4997120;28;20165;-63
2023/11/02 06:05:10;;;;;;;0.30;0.30;;;9.30;99.90;;;;;;4984534;28;20273;-63
2023/11/02 06:07:36;;;;;;;0.40;0.40;;;9.30;99.90;;;;;;4978304;28;20173;-63
2023/11/02 06:10:03;;;;;;;0.85;0.40;;;9.10;99.90;;;;;;4976217;28;20200;-63
2023/11/02 06:12:29;;;;;;;0.52;0.52;;;9.00;99.90;;;;;;4978114;28;20173;-63
2023/11/02 06:14:55;;;;;;;0.50;0.50;;;8.90;99.90;;;;;;4977514;28;20268;-63
2023/11/02 06:17:22;;;;;;;0.30;0.30;;;8.90;99.90;;;;;;4977892;28;20531;-63
2023/11/02 06:19:47;;;;;;;2.08;0.85;;;9.00;99.90;;;;;;4977609;28;20212;-63
2023/11/02 06:22:13;;;;;;;1.10;0.70;;;9.10;99.90;;;;;;4977544;28;20184;-63
2023/11/02 06:24:41;;;;;;;0.30;0.30;;;9.10;99.90;;;;;;4977363;28;20176;-63
2023/11/02 06:27:08;;;;;;;0.65;0.65;;;9.10;99.90;;;;;;4986859;28;20282;-63
2023/11/02 06:29:34;;;;;;;0.30;0.30;;;9.10;99.90;;;;;;4991576;28;20188;-63
2023/11/02 06:32:00;;;;;;;0.57;0.57;;;9.10;99.90;;;;;;4985181;28;20197;-63
2023/11/02 06:34:26;;;;;;;0.30;0.30;;;9.40;99.90;;;;;;4998648;28;20732;-63
2023/11/02 06:36:52;;;;;;;0.40;0.40;;;9.40;99.90;;;;;;5011639;28;20222;-63
2023/11/02 06:39:20;;;;;;;0.80;0.80;;;9.50;99.90;;;;;;5015133;28;20653;-64
2023/11/02 06:41:50;;;;;;;0.40;0.40;;;9.50;99.90;;;;;;5015626;28;20171;-63
2023/11/02 06:44:15;;;;;;;0.75;0.60;;;9.60;99.90;;;;;;5015606;28;20254;-65
2023/11/02 06:46:43;;;;;;;0.70;0.70;;;9.50;99.90;;;;;;5033810;23;20670;-56
2023/11/02 06:49:08;;;;;;;0.40;0.40;;;9.50;99.90;;;;;;5011841;28;20481;-57
2023/11/02 06:51:35;;;;;;;0.50;0.40;;;9.50;99.90;;;;;;5012249;28;20207;-57
2023/11/02 06:54:00;;;;;;;0.50;0.40;;;9.50;99.90;;;;;;5012259;28;20936;-57
2023/11/02 06:56:26;;;;;;;0.70;0.70;;;9.40;99.90;;;;;;5012086;28;20286;-57
2023/11/02 06:58:52;;;;;;;0.70;0.70;;;9.40;99.90;;;;;;5012212;28;20179;-57
2023/11/02 07:01:19;;;;;;;0.40;0.40;;;9.30;99.90;;;;;;5012170;28;20667;-56
2023/11/02 07:03:47;;;;;;;0.93;0.77;;;9.40;99.90;;;;;;5012078;28;20183;-57
2023/11/02 07:06:13;;;;;;;1.30;0.70;;;9.40;99.90;;;;;;5011465;28;20191;-57
2023/11/02 07:08:39;;;;;;;0.40;0.40;;;9.50;99.90;;;;;;5011849;28;20197;-57
2023/11/02 07:11:05;;;;;;;0.40;0.40;;;9.60;99.90;;;;;;5011998;28;20198;-57
2023/11/02 07:13:31;;;;;;;0.60;0.60;;;9.60;99.90;;;;;;5012066;28;20222;-57
2023/11/02 07:15:57;;;;;;;1.08;0.70;;;9.60;99.90;;;;;;5011770;28;20221;-57
2023/11/02 07:18:23;;;;;;;0.75;0.60;;;9.70;99.90;;;;;;5011742;28;20214;-57
2023/11/02 07:20:49;;;;;;;1.70;1.23;;;9.60;99.90;;;;;;5011992;28;20175;-56
2023/11/02 07:23:14;;;;;;;1.33;1.33;;;9.60;99.90;;;;;;5011989;28;20801;-56
2023/11/02 07:25:40;;;;;;;0.40;0.40;;;9.60;99.90;;;;;;5011954;28;20187;-56
2023/11/02 07:28:06;;;;;;;0.50;0.50;;;9.50;99.90;;;;;;5011905;28;20187;-55
2023/11/02 07:30:31;;;;;;;0.97;0.70;;;9.50;99.90;;;;;;5011919;28;20934;-57
2023/11/02 07:32:58;;;;;;;0.47;0.47;;;9.50;99.90;;;;;;5011892;28;20175;-56
2023/11/02 07:35:23;;;;;;;0.50;0.50;;;9.50;99.90;;;;;;5011788;28;21817;-56
2023/11/02 07:37:50;;;;;;;0.87;0.87;;;9.50;99.90;;;;;;5011529;28;20261;-56
2023/11/02 07:40:15;;;;;;;0.50;0.40;;;9.40;99.90;;;;;;5011896;28;20410;-57
2023/11/02 07:42:41;;;;;;;0.80;0.80;;;9.40;99.90;;;;;;5011923;28;20202;-57
2023/11/02 07:45:08;;;;;;;0.65;0.50;;;9.50;99.90;;;;;;5011564;28;20176;-57
2023/11/02 07:47:33;;;;;;;0.40;0.40;;;9.50;99.90;;;;;;5011665;28;20191;-57
2023/11/02 07:50:00;;;;;;;0.40;0.40;;;9.60;99.90;;;;;;5011562;28;20175;-57
2023/11/02 07:52:28;;;;;;;0.40;0.40;;;9.60;99.90;;;;;;5011741;28;20842;-57
2023/11/02 07:54:54;;;;;;;0.40;0.40;;;9.70;99.90;;;;;;5011735;28;20502;-57
2023/11/02 07:57:21;;;;;;;0.37;0.37;;;9.70;99.90;;;;;;5011463;28;20751;-57
2023/11/02 07:59:47;;;;;;;2.08;1.17;;;9.80;99.90;;;;;;5011400;28;20679;-57
2023/11/02 08:02:12;;;;;;;0.43;0.40;;;9.70;99.90;;;;;;5011591;28;20180;-58
2023/11/02 08:04:38;;;;;;;0.80;0.70;;;9.70;99.90;;;;;;5011525;28;20168;-58
2023/11/02 08:07:04;;;;;;;0.50;0.50;;;9.70;99.90;;;;;;5011389;28;20249;-58
2023/11/02 08:09:30;;;;;;;0.60;0.60;;;9.70;99.90;;;;;;5011422;28;20254;-58
2023/11/02 08:11:57;;;;;;;0.40;0.40;;;9.70;99.90;;;;;;5011621;28;20644;-57
2023/11/02 08:14:22;;;;;;;1.00;1.00;;;9.70;99.90;;;;;;5011490;28;20233;-57
2023/11/02 08:16:48;;;;;;;0.57;0.57;;;9.70;99.90;;;;;;5013539;28;20207;-57
2023/11/02 08:19:14;;;;;;;0.70;0.70;;;9.80;99.90;;;;;;5014920;28;20171;-57
2023/11/02 08:21:40;;;;;;;0.70;0.70;;;9.70;99.90;;;;;;5015211;28;20179;-57
2023/11/02 08:24:06;;;;;;;0.40;0.40;;;9.50;99.90;;;;;;5014935;28;20699;-55
2023/11/02 08:26:32;;;;;;;0.60;0.40;;;9.40;99.90;;;;;;5014711;28;20203;-57
2023/11/02 08:28:57;;;;;;;0.33;0.33;;;9.50;99.90;;;;;;5014471;28;20175;-57
2023/11/02 08:31:25;;;;;;;0.87;0.87;;;9.30;99.90;;;;;;5014829;28;20684;-56
2023/11/02 08:33:50;;;;;;;0.50;0.50;;;9.30;99.90;;;;;;5015061;28;20642;-56
2023/11/02 08:36:17;;;;;;;0.30;0.30;;;9.40;99.90;;;;;;5014974;28;20291;-57
2023/11/02 08:38:43;;;;;;;0.30;0.30;;;9.50;99.90;;;;;;5014491;28;20207;-57
2023/11/02 08:41:18;;;;;;;0.30;0.30;;;9.70;99.90;;;;;;5014742;28;20167;-57
2023/11/02 08:43:46;;;;;;;0.63;0.63;;;9.80;99.90;;;;;;5014713;28;20208;-58
2023/11/02 08:46:18;;;;;;;0.30;0.30;;;9.80;99.90;;;;;;5014358;28;20250;-57
2023/11/02 08:48:45;;;;;;;0.30;0.30;;;9.90;99.90;;;;;;5014584;28;20191;-58
2023/11/02 08:51:13;;;;;;;0.40;0.40;;;9.90;99.90;;;;;;5014507;28;20633;-57
2023/11/02 08:53:39;;;;;;;1.05;0.88;;;9.90;99.90;;;;;;5014393;28;20199;-57
2023/11/02 08:56:09;;;;;;;0.93;0.93;;;9.60;99.90;;;;;;5014414;28;20226;-58
2023/11/02 08:58:40;;;;;;;0.30;0.30;;;9.60;99.90;;;;;;5014091;28;20997;-58
2023/11/02 09:01:05;;;;;;;0.70;0.70;;;9.60;99.90;;;;;;5014612;28;20238;-58
2023/11/02 09:03:31;;;;;;;0.50;0.50;;;9.80;99.90;;;;;;5014033;28;20825;-58
2023/11/02 09:05:56;;;;;;;0.93;0.93;;;9.80;99.90;;;;;;5014119;28;20189;-57
2023/11/02 09:08:22;;;;;;;0.63;0.63;;;9.80;99.90;;;;;;5014036;28;20229;-58
2023/11/02 09:10:48;;;;;;;0.30;0.30;;;9.70;99.90;;;;;;5014200;28;20550;-58
2023/11/02 09:13:13;;;;;;;0.53;0.40;;;9.80;99.90;;;;;;5014069;28;20171;-58
2023/11/02 09:15:39;;;;;;;0.40;0.40;;;9.90;99.90;;;;;;5014042;28;20222;-58
2023/11/02 09:18:04;;;;;;;0.50;0.50;;;9.90;99.90;;;;;;5013644;28;20590;-58
2023/11/02 09:20:30;;;;;;;0.30;0.30;;;10.00;99.90;;;;;;5014007;28;20242;-58
2023/11/02 09:22:56;;;;;;;0.30;0.30;;;10.00;99.90;;;;;;5013927;28;20171;-57
2023/11/02 09:25:21;;;;;;;0.70;0.40;;;9.80;99.90;;;;;;5013867;28;20163;-58
2023/11/02 09:27:48;;;;;;;0.30;0.30;;;9.80;99.90;;;;;;5012831;28;20183;-58
2023/11/02 09:30:14;;;;;;;0.40;0.40;;;9.80;99.90;;;;;;5013798;28;20550;-57
2023/11/02 09:32:40;;;;;;;0.40;0.40;;;9.90;99.90;;;;;;5013910;28;20179;-59
2023/11/02 09:35:05;;;;;;;0.30;0.30;;;9.90;99.90;;;;;;5013544;28;20178;-58
2023/11/02 09:37:31;;;;;;;0.63;0.63;;;9.70;99.90;;;;;;5005013;28;20685;-58
2023/11/02 09:39:57;;;;;;;0.50;0.40;;;9.50;99.90;;;;;;5000817;28;20428;-58
2023/11/02 09:42:23;;;;;;;0.40;0.40;;;9.50;99.90;;;;;;5008514;28;20255;-60
2023/11/02 09:44:51;;;;;;;0.50;0.50;;;9.70;99.90;;;;;;5013348;28;20172;-59
2023/11/02 09:47:17;;;;;;;0.30;0.30;;;10.30;99.90;;;;;;4993717;28;20692;-59
2023/11/02 09:49:42;;;;;;;0.37;0.37;;;10.90;99.90;;;;;;4993737;28;20176;-61
2023/11/02 09:52:08;;;;;;;0.30;0.30;;;11.50;99.90;;;;;;4993753;28;20168;-60
2023/11/02 09:54:34;;;;;;;0.40;0.40;;;11.90;99.90;;;;;;4993664;28;20176;-58
2023/11/02 09:57:00;;;;;;;0.30;0.30;;;12.10;99.90;;;;;;4993408;28;20551;-58
2023/11/02 09:59:26;;;;;;;0.50;0.50;;;11.80;99.40;;;;;;5003384;28;20176;-59
2023/11/02 10:01:52;;;;;;;0.40;0.40;;;11.40;99.50;;;;;;4996308;28;20415;-58
2023/11/02 10:04:18;;;;;;;0.40;0.40;;;11.10;99.90;;;;;;5013129;28;20167;-58
2023/11/02 10:06:44;;;;;;;0.50;0.50;;;10.70;99.90;;;;;;5004731;28;20432;-58
2023/11/02 10:09:09;;;;;;;0.30;0.30;;;10.50;99.90;;;;;;4992175;28;20172;-58
2023/11/02 10:11:35;;;;;;;0.30;0.30;;;10.30;99.90;;;;;;4993281;28;20176;-58
2023/11/02 10:14:04;;;;;;;0.53;0.53;;;10.00;99.90;;;;;;4993336;28;20204;-58
2023/11/02 10:16:30;;;;;;;0.30;0.30;;;10.00;99.90;;;;;;4992862;28;20576;-58
2023/11/02 10:18:56;;;;;;;0.30;0.30;;;10.00;99.90;;;;;;4993056;28;20196;-61
2023/11/02 10:21:22;;;;;;;0.30;0.30;;;9.80;99.90;;;;;;4993347;28;20446;-58
2023/11/02 10:23:55;;;;;;;0.40;0.40;;;9.80;99.90;;;;;;4993171;28;20168;-57
2023/11/02 10:26:23;;;;;;;0.30;0.30;;;9.80;99.90;;;;;;4992855;28;20323;-58
2023/11/02 10:28:52;;;;;;;0.50;0.40;;;9.80;99.90;;;;;;4992829;28;20175;-58
2023/11/02 10:31:20;;;;;;;0.40;0.40;;;9.90;99.90;;;;;;4993152;28;20180;-58
2023/11/02 10:33:49;;;;;;;0.50;0.40;;;9.80;99.90;;;;;;4993074;28;20194;-58
2023/11/02 10:36:16;;;;;;;0.40;0.40;;;9.80;99.90;;;;;;4992900;28;20222;-58
2023/11/02 10:38:46;;;;;;;0.40;0.40;;;9.60;99.90;;;;;;4992286;28;20212;-58
2023/11/02 10:41:19;;;;;;;0.50;0.50;;;9.70;99.90;;;;;;4992930;28;20222;-58
2023/11/02 10:43:45;;;;;;;0.60;0.60;;;9.80;99.90;;;;;;4993001;28;20184;-58
2023/11/02 10:46:12;;;;;;;0.40;0.40;;;9.90;99.90;;;;;;4992440;28;20202;-58
2023/11/02 10:48:41;;;;;;;0.40;0.40;;;9.80;99.90;;;;;;4992637;28;20183;-57
2023/11/02 10:51:23;;;;;;;0.50;0.50;;;9.80;99.90;;;;;;4995447;28;20585;-58
2023/11/02 10:54:06;;;;;;;0.40;0.40;;;9.70;99.90;;;;;;5003450;28;20199;-58
2023/11/02 10:56:45;;;;;;;0.30;0.30;;;9.80;99.90;;;;;;5002894;28;20202;-58
2023/11/02 10:59:11;;;;;;;1.73;1.58;;;9.70;99.90;;;;;;5006029;28;20206;-58
2023/11/02 11:01:37;;;;;;;0.40;0.40;;;9.70;99.90;;;;;;4999346;28;20178;-57
2023/11/02 11:04:05;;;;;;;0.50;0.40;;;9.60;99.90;;;;;;5006410;28;20246;-57
2023/11/02 11:06:32;;;;;;;0.40;0.40;;;9.70;99.90;;;;;;5016531;28;20201;-58
2023/11/02 11:08:59;;;;;;;0.40;0.40;;;9.70;99.90;;;;;;5027333;28;20178;-58
2023/11/02 11:11:27;;;;;;;0.40;0.40;;;9.60;99.90;;;;;;5031742;28;20175;-58
2023/11/02 11:13:54;;;;;;;3.15;0.65;;;9.60;99.90;;;;;;5031680;28;20178;-57
2023/11/02 11:16:22;;;;;;;1.25;1.20;;;9.50;99.90;;;;;;5031412;28;20190;-58
2023/11/02 11:18:50;;;;;;;0.30;0.30;;;9.60;99.90;;;;;;5031396;28;20252;-57
2023/11/02 11:21:18;;;;;;;0.30;0.30;;;9.70;99.90;;;;;;5031591;28;20159;-57
2023/11/02 11:23:47;;;;;;;0.43;0.43;;;9.70;99.90;;;;;;5031504;28;20174;-58
2023/11/02 11:26:14;;;;;;;0.45;0.40;;;9.60;99.90;;;;;;5031466;28;20388;-58
2023/11/02 11:28:40;;;;;;;0.30;0.30;;;9.60;99.90;;;;;;5031225;28;20260;-58
2023/11/02 11:31:06;;;;;;;0.50;0.50;;;9.60;99.90;;;;;;5031594;28;20590;-57
2023/11/02 11:33:50;;;;;;;0.40;0.40;;;9.70;99.90;;;;;;5031510;28;20258;-58
2023/11/02 11:36:27;;;;;;;0.38;0.38;;;9.60;99.90;;;;;;5024215;28;20211;-58
2023/11/02 11:38:55;;;;;;;0.40;0.40;;;9.50;99.90;;;;;;5008644;28;20231;-57
2023/11/02 11:41:44;;;;;;;0.30;0.30;;;9.60;99.90;;;;;;5008690;28;20204;-58
2023/11/02 11:44:22;;;;;;;0.63;0.40;;;9.50;99.90;;;;;;5000814;28;20195;-58
2023/11/02 11:46:52;;;;;;;0.77;0.77;;;9.40;99.90;;;;;;5017086;28;20785;-58
2023/11/02 11:49:36;;;;;;;0.30;0.30;;;9.40;99.90;;;;;;5009923;28;20574;-57
2023/11/02 11:52:28;;;;;;;0.40;0.40;;;9.40;99.90;;;;;;5019863;28;20207;-57
2023/11/02 11:54:54;;;;;;;0.40;0.40;;;9.40;99.90;;;;;;5011079;28;20619;-58
2023/11/02 11:57:54;;;;;;;0.38;0.38;;;9.50;99.90;;;;;;5011955;28;20215;-57
2023/11/02 12:00:21;;;;;;;0.60;0.60;;;9.40;99.90;;;;;;5009881;28;20184;-58
2023/11/02 12:02:52;;;;;;;1.88;0.70;;;9.30;99.90;;;;;;5015757;28;20190;-58
2023/11/02 12:05:43;;;;;;;0.60;0.60;;;9.40;99.90;;;;;;5015622;28;20179;-58
2023/11/02 12:08:09;;;;;;;0.70;0.70;;;9.40;99.90;;;;;;5004524;28;20187;-58
2023/11/02 12:10:57;;;;;;;0.55;0.45;;;9.60;99.90;;;;;;5026637;28;20217;-58
2023/11/02 12:13:24;;;;;;;0.40;0.40;;;9.60;99.90;;;;;;5034942;28;20213;-58
2023/11/02 12:15:59;;;;;;;0.40;0.40;;;9.60;99.90;;;;;;5034799;28;20253;-58
2023/11/02 12:18:27;;;;;;;0.30;0.30;;;9.70;99.90;;;;;;5034481;28;20554;-58
2023/11/02 12:20:53;;;;;;;0.43;0.43;;;9.80;99.90;;;;;;5031417;28;20179;-58
2023/11/02 12:23:20;;;;;;;0.70;0.47;;;9.80;99.90;;;;;;5015004;28;20171;-57
2023/11/02 12:25:50;;;;;;;0.40;0.40;;;9.80;99.90;;;;;;5014995;28;20772;-57
2023/11/02 12:28:16;;;;;;;0.40;0.40;;;9.70;99.90;;;;;;5014629;28;20572;-57
2023/11/02 12:30:43;;;;;;;0.60;0.60;;;9.60;99.90;;;;;;5014430;28;20196;-58
2023/11/02 12:33:09;;;;;;;0.30;0.30;;;9.60;99.90;;;;;;5014705;28;20184;-58
2023/11/02 12:35:35;;;;;;;0.40;0.40;;;9.60;99.90;;;;;;5018444;28;20198;-58
2023/11/02 12:38:02;;;;;;;0.30;0.30;;;9.50;99.90;;;;;;5025809;28;20457;-58
2023/11/02 12:40:47;;;;;;;0.73;0.43;;;9.30;99.90;;;;;;5034490;28;20438;-58
2023/11/02 12:43:22;;;;;;;0.30;0.30;;;9.30;99.90;;;;;;5034486;28;20174;-58
2023/11/02 12:45:54;;;;;;;0.40;0.40;;;9.30;99.90;;;;;;5087034;23;20194;-64
2023/11/02 12:48:33;;;;;;;0.80;0.52;;;9.20;99.90;;;;;;5014387;28;20191;-64
2023/11/02 12:51:17;;;;;;;0.52;0.52;;;9.20;99.90;;;;;;5016359;28;20178;-63
2023/11/02 12:53:43;;;;;;;0.30;0.30;;;9.30;99.90;;;;;;5014561;28;20175;-64
2023/11/02 12:56:11;;;;;;;0.70;0.63;;;9.30;99.90;;;;;;5015686;28;20207;-63
2023/11/02 12:58:38;;;;;;;1.50;1.50;;;9.30;99.90;;;;;;5014993;28;20234;-64
2023/11/02 13:01:04;;;;;;;0.30;0.30;;;9.20;99.90;;;;;;5015764;28;20168;-63
2023/11/02 13:03:29;;;;;;;0.70;0.67;;;9.20;99.90;;;;;;5015453;28;20178;-63
2023/11/02 13:05:55;;;;;;;0.73;0.40;;;9.10;99.90;;;;;;5015666;28;20318;-63
2023/11/02 13:08:24;;;;;;;0.57;0.57;;;9.10;99.90;;;;;;5016327;28;20194;-63
2023/11/02 13:10:50;;;;;;;0.40;0.40;;;8.90;99.90;;;;;;5016340;28;20187;-64
2023/11/02 13:13:17;;;;;;;0.30;0.30;;;8.80;99.90;;;;;;5016075;28;20183;-64